Huvudsida
METAR-TAF:

METAR-TAF

Flygplatser :

Base Aérea de Santa Cruz

Santa Cruz, Rio de Janeiro, Brasilien

latitud: 22-56S, longitud: 043-43W, höjd: 3 m

Aktuellt väderrapport

Denna rapport gjordes för 2 timmar och 3 minuter sedan, klockan 19:00 UTC
Vind 5 kt från nord/nordost
Temperatur 26°C
Fuktighet 48%
Tryck 1017 hPa
Sikt 10 km eller mer
Inga moln under 1 500 m eller inga cumulonimbus

METAR: SBSC 291900Z 03005KT CAVOK 26/14 Q1017

Tid: 18:03 (21:03 UTC)

Väderprognos

Denna rapport gjordes för 6 timmar och 3 minuter sedan, klockan 15:00 UTC
Prognos gäller från 29 kl. 18 UTC till 30 kl. 06 UTC
Vind 8 kt från syd
Sikt 10 km eller mer
Inga moln under 1 500 m eller inga cumulonimbus
Blir
från 29 kl. 23 UTC till 30 kl. 01 UTC
Vind 5 kt från nordost
Blir
från 30 kl. 04 UTC till 30 kl. 06 UTC
Vind 5 kt från nord/nordväst

TAF: SBSC 291500Z 2918/3006 19008KT CAVOK TX26/2918Z TN14/3006Z BECMG 2923/3001 04005KT BECMG 3004/3006 34005KT RMK PAY

Aktuella väderrapporter och prognoser från 4000 flygplatser (METAR- och TAF-rapporter).

De tillgängliga stationerna syns som gula och röda prickar på kartan.

För musen över prickarna för att se namnen på stationerna.

Klicka sedan för att få väderrapporter och prognoser.

För att ändra kartan: Klicka på de gröna knapparna med ett svart kors på för att zooma in; den gröna knappen med ett streck på för att zooma ut; eller på de gröna pilarna för angränsande kartor.


METAR-TAF: